sensor_id;sensor_type;location;lat;lon;timestamp;pressure;altitude;pressure_sealevel;temperature;humidity
56074;BME280;41950;55.840;37.442;2022-09-21T00:01:27;99576.41;;;8.72;84.65
56074;BME280;41950;55.840;37.442;2022-09-21T00:03:56;99591.00;;;8.79;84.79
56074;BME280;41950;55.840;37.442;2022-09-21T00:06:23;99606.53;;;8.79;84.47
56074;BME280;41950;55.840;37.442;2022-09-21T00:08:49;99584.19;;;8.70;84.94
56074;BME280;41950;55.840;37.442;2022-09-21T00:11:19;99593.63;;;8.73;84.54
56074;BME280;41950;55.840;37.442;2022-09-21T00:13:46;99602.25;;;8.73;84.75
56074;BME280;41950;55.840;37.442;2022-09-21T00:16:14;99597.13;;;8.70;84.84
56074;BME280;41950;55.840;37.442;2022-09-21T00:18:41;99589.44;;;8.64;84.65
56074;BME280;41950;55.840;37.442;2022-09-21T00:21:08;99592.84;;;8.66;84.77
56074;BME280;41950;55.840;37.442;2022-09-21T00:23:35;99604.09;;;8.63;84.64
56074;BME280;41950;55.840;37.442;2022-09-21T00:26:10;99609.25;;;8.65;84.92
56074;BME280;41950;55.840;37.442;2022-09-21T00:28:36;99592.97;;;8.55;84.65
56074;BME280;41950;55.840;37.442;2022-09-21T00:31:07;99608.47;;;8.58;84.90
56074;BME280;41950;55.840;37.442;2022-09-21T00:33:35;99600.72;;;8.58;85.07
56074;BME280;41950;55.840;37.442;2022-09-21T00:36:05;99601.59;;;8.57;85.04
56074;BME280;41950;55.840;37.442;2022-09-21T00:38:32;99595.63;;;8.48;85.31
56074;BME280;41950;55.840;37.442;2022-09-21T00:40:58;99594.75;;;8.49;84.88
56074;BME280;41950;55.840;37.442;2022-09-21T00:43:24;99602.50;;;8.52;85.09
56074;BME280;41950;55.840;37.442;2022-09-21T00:45:56;99613.69;;;8.55;85.46
56074;BME280;41950;55.840;37.442;2022-09-21T00:48:24;99607.66;;;8.53;85.26
56074;BME280;41950;55.840;37.442;2022-09-21T00:50:53;99601.66;;;8.50;85.60
56074;BME280;41950;55.840;37.442;2022-09-21T00:53:20;99608.50;;;8.57;85.05
56074;BME280;41950;55.840;37.442;2022-09-21T00:55:50;99595.69;;;8.43;85.23
56074;BME280;41950;55.840;37.442;2022-09-21T00:58:20;99613.69;;;8.54;85.50
56074;BME280;41950;55.840;37.442;2022-09-21T01:00:48;99595.63;;;8.48;85.44
56074;BME280;41950;55.840;37.442;2022-09-21T01:03:14;99614.53;;;8.57;85.44
56074;BME280;41950;55.840;37.442;2022-09-21T01:05:39;99605.00;;;8.59;85.54
56074;BME280;41950;55.840;37.442;2022-09-21T01:08:06;99607.63;;;8.58;85.48
56074;BME280;41950;55.840;37.442;2022-09-21T01:14:07;99616.19;;;8.61;85.46
56074;BME280;41950;55.840;37.442;2022-09-21T01:17:08;99606.78;;;8.56;85.73
56074;BME280;41950;55.840;37.442;2022-09-21T01:27:53;99607.53;;;8.64;85.47
56074;BME280;41950;55.840;37.442;2022-09-21T01:30:22;99607.63;;;8.58;85.45
56074;BME280;41950;55.840;37.442;2022-09-21T01:35:41;99592.09;;;8.58;85.66
56074;BME280;41950;55.840;37.442;2022-09-21T01:38:22;99608.44;;;8.61;85.70
56074;BME280;41950;55.840;37.442;2022-09-21T01:40:51;99610.16;;;8.62;85.32
56074;BME280;41950;55.840;37.442;2022-09-21T01:43:28;99603.28;;;8.60;85.62
56074;BME280;41950;55.840;37.442;2022-09-21T01:45:57;99603.28;;;8.58;85.40
56074;BME280;41950;55.840;37.442;2022-09-21T01:48:30;99600.72;;;8.58;85.50
56074;BME280;41950;55.840;37.442;2022-09-21T01:50:57;99599.91;;;8.53;85.68
56074;BME280;41950;55.840;37.442;2022-09-21T01:56:02;99605.09;;;8.52;85.49
56074;BME280;41950;55.840;37.442;2022-09-21T01:58:34;99599.91;;;8.52;85.69
56074;BME280;41950;55.840;37.442;2022-09-21T02:01:01;99605.09;;;8.52;85.73
56074;BME280;41950;55.840;37.442;2022-09-21T02:03:51;99612.00;;;8.48;85.82
56074;BME280;41950;55.840;37.442;2022-09-21T02:06:20;99610.28;;;8.49;85.69
56074;BME280;41950;55.840;37.442;2022-09-21T02:08:45;99612.88;;;8.50;85.62
56074;BME280;41950;55.840;37.442;2022-09-21T02:11:12;99611.16;;;8.49;85.89
56074;BME280;41950;55.840;37.442;2022-09-21T02:13:41;99609.41;;;8.48;85.94
56074;BME280;41950;55.840;37.442;2022-09-21T02:16:33;99614.63;;;8.44;85.89
56074;BME280;41950;55.840;37.442;2022-09-21T02:21:46;99628.41;;;8.47;86.23
56074;BME280;41950;55.840;37.442;2022-09-21T02:24:45;99621.50;;;8.48;86.12
56074;BME280;41950;55.840;37.442;2022-09-21T02:29:59;99624.06;;;8.48;86.35
56074;BME280;41950;55.840;37.442;2022-09-21T02:43:25;99618.06;;;8.46;86.17
56074;BME280;41950;55.840;37.442;2022-09-21T02:45:58;99622.34;;;8.53;86.15
56074;BME280;41950;55.840;37.442;2022-09-21T02:48:35;99623.19;;;8.53;86.31
56074;BME280;41950;55.840;37.442;2022-09-21T02:51:09;99630.03;;;8.57;86.26
56074;BME280;41950;55.840;37.442;2022-09-21T02:53:37;99626.63;;;8.54;86.36
56074;BME280;41950;55.840;37.442;2022-09-21T02:56:06;99621.50;;;8.51;86.19
56074;BME280;41950;55.840;37.442;2022-09-21T02:58:37;99608.56;;;8.48;85.97
56074;BME280;41950;55.840;37.442;2022-09-21T03:01:06;99624.91;;;8.53;85.99
56074;BME280;41950;55.840;37.442;2022-09-21T03:03:34;99618.00;;;8.55;86.41
56074;BME280;41950;55.840;37.442;2022-09-21T03:06:00;99622.28;;;8.56;86.33
56074;BME280;41950;55.840;37.442;2022-09-21T03:08:26;99624.84;;;8.59;86.33
56074;BME280;41950;55.840;37.442;2022-09-21T03:10:52;99630.88;;;8.61;86.33
56074;BME280;41950;55.840;37.442;2022-09-21T03:13:18;99631.72;;;8.61;86.64
56074;BME280;41950;55.840;37.442;2022-09-21T03:15:45;99626.53;;;8.61;86.71
56074;BME280;41950;55.840;37.442;2022-09-21T03:18:12;99629.13;;;8.63;86.55
56074;BME280;41950;55.840;37.442;2022-09-21T03:20:39;99622.25;;;8.59;86.20
56074;BME280;41950;55.840;37.442;2022-09-21T03:23:06;99638.53;;;8.68;86.26
56074;BME280;41950;55.840;37.442;2022-09-21T03:25:32;99631.63;;;8.71;86.63
56074;BME280;41950;55.840;37.442;2022-09-21T03:27:58;99637.66;;;8.71;86.61
56074;BME280;41950;55.840;37.442;2022-09-21T03:30:25;99625.59;;;8.70;86.48
56074;BME280;41950;55.840;37.442;2022-09-21T03:32:52;99634.16;;;8.74;86.08
56074;BME280;41950;55.840;37.442;2022-09-21T03:35:20;99627.38;;;8.65;86.29
56074;BME280;41950;55.840;37.442;2022-09-21T03:37:46;99635.06;;;8.71;86.28
56074;BME280;41950;55.840;37.442;2022-09-21T03:40:13;99634.19;;;8.71;86.48
56074;BME280;41950;55.840;37.442;2022-09-21T03:42:39;99616.22;;;8.60;86.19
56074;BME280;41950;55.840;37.442;2022-09-21T03:45:13;99633.34;;;8.70;86.71
56074;BME280;41950;55.840;37.442;2022-09-21T03:47:39;99623.78;;;8.75;86.93
56074;BME280;41950;55.840;37.442;2022-09-21T03:50:06;99628.03;;;8.84;86.89
56074;BME280;41950;55.840;37.442;2022-09-21T03:52:32;99628.81;;;8.90;86.79
56074;BME280;41950;55.840;37.442;2022-09-21T03:54:58;99621.94;;;8.89;87.13
56074;BME280;41950;55.840;37.442;2022-09-21T03:57:24;99618.38;;;8.96;86.94
56074;BME280;41950;55.840;37.442;2022-09-21T03:59:50;99605.47;;;8.93;87.36
56074;BME280;41950;55.840;37.442;2022-09-21T04:02:16;99625.13;;;9.11;86.96
56074;BME280;41950;55.840;37.442;2022-09-21T04:04:41;99609.66;;;9.04;87.20
56074;BME280;41950;55.840;37.442;2022-09-21T04:07:07;99611.28;;;9.14;87.29
56074;BME280;41950;55.840;37.442;2022-09-21T04:09:33;99617.28;;;9.17;87.45
56074;BME280;41950;55.840;37.442;2022-09-21T04:11:58;99607.78;;;9.18;87.38
56074;BME280;41950;55.840;37.442;2022-09-21T04:14:24;99623.13;;;9.30;87.23
56074;BME280;41950;55.840;37.442;2022-09-21T04:16:50;99605.03;;;9.28;87.18
56074;BME280;41950;55.840;37.442;2022-09-21T04:19:18;99610.19;;;9.32;87.25
56074;BME280;41950;55.840;37.442;2022-09-21T04:21:44;99623.09;;;9.36;87.04
56074;BME280;41950;55.840;37.442;2022-09-21T04:24:09;99617.00;;;9.39;87.06
56074;BME280;41950;55.840;37.442;2022-09-21T04:26:35;99618.66;;;9.44;87.33
56074;BME280;41950;55.840;37.442;2022-09-21T04:29:02;99616.00;;;9.49;87.69
56074;BME280;41950;55.840;37.442;2022-09-21T04:31:28;99596.13;;;9.48;87.79
56074;BME280;41950;55.840;37.442;2022-09-21T04:33:55;99615.00;;;9.57;87.40
56074;BME280;41950;55.840;37.442;2022-09-21T04:36:23;99615.84;;;9.59;87.55
56074;BME280;41950;55.840;37.442;2022-09-21T04:38:49;99616.69;;;9.62;87.84
56074;BME280;41950;55.840;37.442;2022-09-21T04:41:15;99614.00;;;9.68;87.98
56074;BME280;41950;55.840;37.442;2022-09-21T04:43:42;99619.13;;;9.71;87.58
56074;BME280;41950;55.840;37.442;2022-09-21T04:46:10;99619.13;;;9.72;87.93
56074;BME280;41950;55.840;37.442;2022-09-21T04:48:37;99617.31;;;9.77;87.85
56074;BME280;41950;55.840;37.442;2022-09-21T04:51:04;99618.16;;;9.78;87.69
56074;BME280;41950;55.840;37.442;2022-09-21T04:53:32;99626.66;;;9.89;87.78
56074;BME280;41950;55.840;37.442;2022-09-21T04:55:58;99631.72;;;9.95;87.43
56074;BME280;41950;55.840;37.442;2022-09-21T04:58:23;99626.50;;;9.98;87.47
56074;BME280;41950;55.840;37.442;2022-09-21T05:00:51;99623.78;;;10.04;86.87
56074;BME280;41950;55.840;37.442;2022-09-21T05:03:20;99623.78;;;10.04;86.94
56074;BME280;41950;55.840;37.442;2022-09-21T05:05:51;99635.81;;;10.10;86.69
56074;BME280;41950;55.840;37.442;2022-09-21T05:08:18;99633.19;;;10.11;86.72
56074;BME280;41950;55.840;37.442;2022-09-21T05:11:02;99632.31;;;10.11;86.28
56074;BME280;41950;55.840;37.442;2022-09-21T05:13:28;99634.91;;;10.14;86.21
56074;BME280;41950;55.840;37.442;2022-09-21T05:15:53;99627.13;;;10.14;86.35
56074;BME280;41950;55.840;37.442;2022-09-21T05:18:19;99639.09;;;10.23;86.13
56074;BME280;41950;55.840;37.442;2022-09-21T05:20:44;99641.56;;;10.30;86.04
56074;BME280;41950;55.840;37.442;2022-09-21T05:23:17;99639.75;;;10.35;85.98
56074;BME280;41950;55.840;37.442;2022-09-21T05:25:43;99641.41;;;10.41;85.95
56074;BME280;41950;55.840;37.442;2022-09-21T05:28:15;99645.56;;;10.49;85.96
56074;BME280;41950;55.840;37.442;2022-09-21T05:30:43;99644.59;;;10.55;85.91
56074;BME280;41950;55.840;37.442;2022-09-21T05:33:12;99641.88;;;10.61;85.95
56074;BME280;41950;55.840;37.442;2022-09-21T05:40:34;99636.53;;;10.70;85.34
56074;BME280;41950;55.840;37.442;2022-09-21T05:43:00;99632.09;;;10.77;85.17
56074;BME280;41950;55.840;37.442;2022-09-21T05:45:26;99632.84;;;10.82;85.20
56074;BME280;41950;55.840;37.442;2022-09-21T05:48:07;99639.72;;;10.84;85.30
56074;BME280;41950;55.840;37.442;2022-09-21T05:58:33;99628.91;;;11.06;84.22
56074;BME280;41950;55.840;37.442;2022-09-21T06:01:15;99627.09;;;11.11;84.12
56074;BME280;41950;55.840;37.442;2022-09-21T06:03:45;99640.66;;;11.25;84.04
56074;BME280;41950;55.840;37.442;2022-09-21T06:06:13;99630.19;;;11.28;83.84
56074;BME280;41950;55.840;37.442;2022-09-21T06:08:39;99613.81;;;11.25;83.95
56074;BME280;41950;55.840;37.442;2022-09-21T06:11:04;99621.44;;;11.32;83.65
56074;BME280;41950;55.840;37.442;2022-09-21T06:13:39;99625.56;;;11.42;83.32
56074;BME280;41950;55.840;37.442;2022-09-21T06:16:06;99627.19;;;11.46;83.04
56074;BME280;41950;55.840;37.442;2022-09-21T06:18:38;99621.06;;;11.51;83.02
56074;BME280;41950;55.840;37.442;2022-09-21T06:21:06;99618.19;;;11.63;83.06
56074;BME280;41950;55.840;37.442;2022-09-21T06:23:42;99626.53;;;11.75;82.65
56074;BME280;41950;55.840;37.442;2022-09-21T06:26:07;99633.09;;;11.93;82.66
56074;BME280;41950;55.840;37.442;2022-09-21T06:28:33;99626.78;;;12.03;82.77
56074;BME280;41950;55.840;37.442;2022-09-21T06:30:59;99630.78;;;12.18;82.10
56074;BME280;41950;55.840;37.442;2022-09-21T06:33:24;99635.44;;;12.40;81.19
56074;BME280;41950;55.840;37.442;2022-09-21T06:35:54;99640.38;;;12.50;79.77
56074;BME280;41950;55.840;37.442;2022-09-21T06:38:22;99640.09;;;12.61;79.26
56074;BME280;41950;55.840;37.442;2022-09-21T06:40:48;99621.69;;;12.68;79.10
56074;BME280;41950;55.840;37.442;2022-09-21T06:43:15;99630.50;;;12.95;77.98
56074;BME280;41950;55.840;37.442;2022-09-21T06:45:40;99637.91;;;13.09;77.91
56074;BME280;41950;55.840;37.442;2022-09-21T06:48:06;99629.94;;;13.15;76.82
56074;BME280;41950;55.840;37.442;2022-09-21T06:50:35;99633.41;;;13.16;76.72
56074;BME280;41950;55.840;37.442;2022-09-21T06:53:01;99639.50;;;13.15;76.57
56074;BME280;41950;55.840;37.442;2022-09-21T06:55:30;99624.25;;;13.01;76.25
56074;BME280;41950;55.840;37.442;2022-09-21T06:58:06;99620.84;;;12.99;76.43
56074;BME280;41950;55.840;37.442;2022-09-21T07:00:31;99630.94;;;13.10;76.13
56074;BME280;41950;55.840;37.442;2022-09-21T07:02:58;99632.53;;;13.15;75.55
56074;BME280;41950;55.840;37.442;2022-09-21T07:05:23;99628.41;;;13.07;75.84
56074;BME280;41950;55.840;37.442;2022-09-21T07:07:49;99633.59;;;13.08;76.18
56074;BME280;41950;55.840;37.442;2022-09-21T07:10:17;99619.88;;;13.02;76.36
56074;BME280;41950;55.840;37.442;2022-09-21T07:12:43;99639.59;;;13.10;76.33
56074;BME280;41950;55.840;37.442;2022-09-21T07:15:09;99642.13;;;13.13;75.79
56074;BME280;41950;55.840;37.442;2022-09-21T07:17:37;99641.22;;;13.16;76.23
56074;BME280;41950;55.840;37.442;2022-09-21T07:20:04;99641.91;;;13.22;76.11
56074;BME280;41950;55.840;37.442;2022-09-21T07:22:31;99647.03;;;13.25;76.25
56074;BME280;41950;55.840;37.442;2022-09-21T07:24:57;99635.75;;;13.25;75.62
56074;BME280;41950;55.840;37.442;2022-09-21T07:27:23;99642.91;;;13.17;75.39
56074;BME280;41950;55.840;37.442;2022-09-21T07:29:50;99636.81;;;13.19;75.76
56074;BME280;41950;55.840;37.442;2022-09-21T07:32:15;99632.13;;;13.30;75.15
56074;BME280;41950;55.840;37.442;2022-09-21T07:34:41;99635.38;;;13.37;74.69
56074;BME280;41950;55.840;37.442;2022-09-21T07:37:07;99617.91;;;13.41;75.18
56074;BME280;41950;55.840;37.442;2022-09-21T07:39:32;99633.97;;;13.56;74.87
56074;BME280;41950;55.840;37.442;2022-09-21T07:41:58;99638.19;;;13.60;75.73
56074;BME280;41950;55.840;37.442;2022-09-21T07:44:24;99630.25;;;13.64;74.53
56074;BME280;41950;55.840;37.442;2022-09-21T07:46:50;99628.44;;;13.66;74.32
56074;BME280;41950;55.840;37.442;2022-09-21T07:49:16;99630.75;;;13.76;73.63
56074;BME280;41950;55.840;37.442;2022-09-21T07:51:41;99623.63;;;13.81;73.43
56074;BME280;41950;55.840;37.442;2022-09-21T07:54:11;99632.81;;;13.93;73.24
56074;BME280;41950;55.840;37.442;2022-09-21T07:56:37;99632.63;;;13.99;72.52
56074;BME280;41950;55.840;37.442;2022-09-21T07:59:04;99633.28;;;14.06;72.17
56074;BME280;41950;55.840;37.442;2022-09-21T08:01:39;99630.22;;;14.19;72.17
56074;BME280;41950;55.840;37.442;2022-09-21T08:04:08;99630.91;;;14.26;71.21
56074;BME280;41950;55.840;37.442;2022-09-21T08:06:35;99629.03;;;14.30;70.93
56074;BME280;41950;55.840;37.442;2022-09-21T08:09:05;99617.78;;;14.28;70.96
56074;BME280;41950;55.840;37.442;2022-09-21T08:11:31;99616.63;;;14.36;70.74
56074;BME280;41950;55.840;37.442;2022-09-21T08:13:59;99630.84;;;14.54;69.95
56074;BME280;41950;55.840;37.442;2022-09-21T08:16:28;99615.88;;;14.59;71.36
56074;BME280;41950;55.840;37.442;2022-09-21T08:18:54;99620.50;;;14.76;69.99
56074;BME280;41950;55.840;37.442;2022-09-21T08:21:20;99631.44;;;14.87;70.04
56074;BME280;41950;55.840;37.442;2022-09-21T08:23:49;99616.56;;;14.89;68.43
56074;BME280;41950;55.840;37.442;2022-09-21T08:26:17;99618.13;;;14.93;68.03
56074;BME280;41950;55.840;37.442;2022-09-21T08:28:45;99619.84;;;14.94;67.31
56074;BME280;41950;55.840;37.442;2022-09-21T08:31:15;99622.13;;;15.03;67.33
56074;BME280;41950;55.840;37.442;2022-09-21T08:33:42;99623.63;;;15.10;67.24
56074;BME280;41950;55.840;37.442;2022-09-21T08:36:08;99631.34;;;15.13;67.36
56074;BME280;41950;55.840;37.442;2022-09-21T08:38:36;99608.78;;;15.11;66.73
56074;BME280;41950;55.840;37.442;2022-09-21T08:43:59;99610.19;;;15.20;66.43
56074;BME280;41950;55.840;37.442;2022-09-21T08:46:31;99613.25;;;15.31;66.15
56074;BME280;41950;55.840;37.442;2022-09-21T08:49:10;99620.13;;;15.33;65.54
56074;BME280;41950;55.840;37.442;2022-09-21T08:51:53;99615.88;;;15.31;66.00
56074;BME280;41950;55.840;37.442;2022-09-21T08:57:01;99615.72;;;15.35;65.58
56074;BME280;41950;55.840;37.442;2022-09-21T08:59:27;99598.53;;;15.28;66.65
56074;BME280;41950;55.840;37.442;2022-09-21T09:10:53;99602.22;;;15.46;66.61
56074;BME280;41950;55.840;37.442;2022-09-21T09:13:51;99613.13;;;15.57;66.42
56074;BME280;41950;55.840;37.442;2022-09-21T09:18:54;99606.97;;;15.82;65.62
56074;BME280;41950;55.840;37.442;2022-09-21T09:21:26;99591.03;;;15.66;64.62
56074;BME280;41950;55.840;37.442;2022-09-21T09:24:12;99603.94;;;15.70;64.95
56074;BME280;41950;55.840;37.442;2022-09-21T09:27:08;99604.84;;;15.69;65.00
56074;BME280;41950;55.840;37.442;2022-09-21T09:30:13;99596.44;;;15.61;65.37
56074;BME280;41950;55.840;37.442;2022-09-21T09:38:13;99594.13;;;15.52;65.08
56074;BME280;41950;55.840;37.442;2022-09-21T09:43:45;99588.91;;;15.52;65.35
56074;BME280;41950;55.840;37.442;2022-09-21T09:51:34;99579.47;;;15.71;63.37
56074;BME280;41950;55.840;37.442;2022-09-21T09:54:14;99568.34;;;15.66;63.95
56074;BME280;41950;55.840;37.442;2022-09-21T09:56:40;99576.41;;;15.60;62.88
56074;BME280;41950;55.840;37.442;2022-09-21T09:59:14;99580.75;;;15.61;63.93
56074;BME280;41950;55.840;37.442;2022-09-21T10:01:45;99583.25;;;15.64;62.98
56074;BME280;41950;55.840;37.442;2022-09-21T10:04:22;99582.53;;;15.59;63.17
56074;BME280;41950;55.840;37.442;2022-09-21T10:06:47;99584.31;;;15.59;63.48
56074;BME280;41950;55.840;37.442;2022-09-21T10:09:32;99584.34;;;15.57;63.20
56074;BME280;41950;55.840;37.442;2022-09-21T10:14:48;99580.69;;;15.39;63.05
56074;BME280;41950;55.840;37.442;2022-09-21T10:17:16;99567.56;;;15.41;63.56
56074;BME280;41950;55.840;37.442;2022-09-21T10:19:43;99585.69;;;15.45;63.63
56074;BME280;41950;55.840;37.442;2022-09-21T10:22:15;99581.13;;;15.51;63.32
56074;BME280;41950;55.840;37.442;2022-09-21T10:24:48;99579.94;;;15.59;63.34
56074;BME280;41950;55.840;37.442;2022-09-21T10:27:27;99580.63;;;15.64;62.77
56074;BME280;41950;55.840;37.442;2022-09-21T10:29:53;99573.97;;;15.77;62.19
56074;BME280;41950;55.840;37.442;2022-09-21T10:32:23;99576.53;;;15.79;61.04
56074;BME280;41950;55.840;37.442;2022-09-21T10:37:40;99566.50;;;15.68;60.41
56074;BME280;41950;55.840;37.442;2022-09-21T10:42:42;99578.03;;;15.85;60.95
56074;BME280;41950;55.840;37.442;2022-09-21T10:45:16;99566.00;;;15.81;60.25
56074;BME280;41950;55.840;37.442;2022-09-21T10:47:47;99566.78;;;15.83;60.64
56074;BME280;41950;55.840;37.442;2022-09-21T10:50:36;99565.81;;;15.85;61.15
56074;BME280;41950;55.840;37.442;2022-09-21T10:55:39;99569.97;;;16.11;59.77
56074;BME280;41950;55.840;37.442;2022-09-21T10:58:10;99573.59;;;16.29;59.53
56074;BME280;41950;55.840;37.442;2022-09-21T11:00:45;99572.94;;;16.24;57.93
56074;BME280;41950;55.840;37.442;2022-09-21T11:08:59;99566.66;;;16.28;55.35
56074;BME280;41950;55.840;37.442;2022-09-21T11:11:38;99567.84;;;16.21;56.06
56074;BME280;41950;55.840;37.442;2022-09-21T11:14:20;99569.75;;;16.17;56.90
56074;BME280;41950;55.840;37.442;2022-09-21T11:17:13;99575.28;;;16.10;56.54
56074;BME280;41950;55.840;37.442;2022-09-21T11:23:15;99573.44;;;15.91;57.22
56074;BME280;41950;55.840;37.442;2022-09-21T11:25:40;99567.56;;;15.85;57.48
56074;BME280;41950;55.840;37.442;2022-09-21T11:28:20;99568.03;;;15.74;56.74
56074;BME280;41950;55.840;37.442;2022-09-21T11:33:54;99560.38;;;15.69;57.47
56074;BME280;41950;55.840;37.442;2022-09-21T11:39:44;99563.75;;;15.71;57.46
56074;BME280;41950;55.840;37.442;2022-09-21T11:45:00;99563.88;;;15.68;57.54
56074;BME280;41950;55.840;37.442;2022-09-21T12:01:32;99539.28;;;15.94;57.96
56074;BME280;41950;55.840;37.442;2022-09-21T12:04:47;99541.69;;;15.99;58.17
56074;BME280;41950;55.840;37.442;2022-09-21T12:08:16;99543.59;;;15.95;57.46
56074;BME280;41950;55.840;37.442;2022-09-21T12:10:58;99542.19;;;15.87;58.30
56074;BME280;41950;55.840;37.442;2022-09-21T12:14:23;99536.03;;;15.88;57.85
56074;BME280;41950;55.840;37.442;2022-09-21T12:16:37;99533.31;;;15.91;58.12
56074;BME280;41950;55.840;37.442;2022-09-21T12:19:31;99530.09;;;15.84;58.62
56074;BME280;41950;55.840;37.442;2022-09-21T12:22:12;99525.97;;;15.79;59.18
56074;BME280;41950;55.840;37.442;2022-09-21T12:24:53;99516.00;;;15.66;58.13
56074;BME280;41950;55.840;37.442;2022-09-21T12:30:26;99519.53;;;15.65;59.55
56074;BME280;41950;55.840;37.442;2022-09-21T12:35:46;99544.00;;;15.64;60.05
56074;BME280;41950;55.840;37.442;2022-09-21T12:38:23;99533.75;;;15.58;60.06
56074;BME280;41950;55.840;37.442;2022-09-21T12:41:04;99528.28;;;15.42;59.44
56074;BME280;41950;55.840;37.442;2022-09-21T12:46:06;99530.31;;;15.12;60.25
56074;BME280;41950;55.840;37.442;2022-09-21T12:48:37;99537.69;;;15.01;60.64
56074;BME280;41950;55.840;37.442;2022-09-21T12:53:48;99543.94;;;14.97;61.62
56074;BME280;41950;55.840;37.442;2022-09-21T12:56:36;99542.66;;;14.86;60.90
56074;BME280;41950;55.840;37.442;2022-09-21T12:59:24;99540.28;;;14.79;61.23
56074;BME280;41950;55.840;37.442;2022-09-21T13:02:06;99530.75;;;14.77;61.45
56074;BME280;41950;55.840;37.442;2022-09-21T13:10:14;99520.78;;;14.65;61.86
56074;BME280;41950;55.840;37.442;2022-09-21T13:12:42;99529.28;;;14.70;62.86
56074;BME280;41950;55.840;37.442;2022-09-21T13:15:26;99537.00;;;14.73;62.76
56074;BME280;41950;55.840;37.442;2022-09-21T13:18:02;99528.25;;;14.74;62.44
56074;BME280;41950;55.840;37.442;2022-09-21T13:20:37;99526.66;;;14.70;61.94
56074;BME280;41950;55.840;37.442;2022-09-21T13:23:04;99533.41;;;14.75;61.71
56074;BME280;41950;55.840;37.442;2022-09-21T13:25:32;99535.03;;;14.79;62.07
56074;BME280;41950;55.840;37.442;2022-09-21T13:41:01;99529.06;;;14.76;62.79
56074;BME280;41950;55.840;37.442;2022-09-21T13:43:47;99528.38;;;14.71;62.45
56074;BME280;41950;55.840;37.442;2022-09-21T13:51:33;99516.63;;;14.59;62.34
56074;BME280;41950;55.840;37.442;2022-09-21T13:54:01;99510.53;;;14.59;62.62
56074;BME280;41950;55.840;37.442;2022-09-21T13:56:30;99520.19;;;14.57;62.61
56074;BME280;41950;55.840;37.442;2022-09-21T13:58:57;99488.56;;;14.39;62.76
56074;BME280;41950;55.840;37.442;2022-09-21T14:01:30;99508.09;;;14.54;63.21
56074;BME280;41950;55.840;37.442;2022-09-21T14:04:00;99517.47;;;14.60;63.26
56074;BME280;41950;55.840;37.442;2022-09-21T14:06:34;99524.28;;;14.64;63.24
56074;BME280;41950;55.840;37.442;2022-09-21T14:09:28;99511.13;;;14.67;63.32
56074;BME280;41950;55.840;37.442;2022-09-21T14:12:11;99516.34;;;14.67;62.78
56074;BME280;41950;55.840;37.442;2022-09-21T14:14:42;99511.97;;;14.67;62.62
56074;BME280;41950;55.840;37.442;2022-09-21T14:17:44;99497.38;;;14.62;62.69
56074;BME280;41950;55.840;37.442;2022-09-21T14:20:30;99517.94;;;14.71;62.77
56074;BME280;41950;55.840;37.442;2022-09-21T14:23:29;99511.84;;;14.70;62.51
56074;BME280;41950;55.840;37.442;2022-09-21T14:25:56;99514.41;;;14.72;62.82
56074;BME280;41950;55.840;37.442;2022-09-21T14:28:37;99516.16;;;14.71;62.57
56074;BME280;41950;55.840;37.442;2022-09-21T14:31:20;99516.22;;;14.70;62.68
56074;BME280;41950;55.840;37.442;2022-09-21T14:33:56;99499.81;;;14.66;62.70
56074;BME280;41950;55.840;37.442;2022-09-21T14:36:35;99509.47;;;14.64;62.95
56074;BME280;41950;55.840;37.442;2022-09-21T14:39:04;99507.88;;;14.60;62.78
56074;BME280;41950;55.840;37.442;2022-09-21T14:41:38;99513.94;;;14.61;63.07
56074;BME280;41950;55.840;37.442;2022-09-21T14:44:05;99504.59;;;14.55;63.43
56074;BME280;41950;55.840;37.442;2022-09-21T14:52:02;99527.38;;;14.50;64.44
56074;BME280;41950;55.840;37.442;2022-09-21T14:55:03;99512.28;;;14.33;64.21
56074;BME280;41950;55.840;37.442;2022-09-21T15:00:38;99517.88;;;14.22;64.88
56074;BME280;41950;55.840;37.442;2022-09-21T15:09:38;99521.97;;;14.05;65.11
56074;BME280;41950;55.840;37.442;2022-09-21T15:13:29;99523.06;;;13.99;65.56
56074;BME280;41950;55.840;37.442;2022-09-21T15:18:25;99523.09;;;13.98;65.89
56074;BME280;41950;55.840;37.442;2022-09-21T15:20:59;99529.19;;;13.97;65.96
56074;BME280;41950;55.840;37.442;2022-09-21T15:23:37;99521.53;;;13.92;66.24
56074;BME280;41950;55.840;37.442;2022-09-21T15:26:15;99534.56;;;13.92;66.80
56074;BME280;41950;55.840;37.442;2022-09-21T15:28:47;99525.19;;;13.86;66.76
56074;BME280;41950;55.840;37.442;2022-09-21T15:31:15;99530.47;;;13.85;66.38
56074;BME280;41950;55.840;37.442;2022-09-21T15:33:43;99533.03;;;13.86;66.35
56074;BME280;41950;55.840;37.442;2022-09-21T15:36:25;99517.97;;;13.68;66.54
56074;BME280;41950;55.840;37.442;2022-09-21T15:38:54;99535.94;;;13.77;67.21
56074;BME280;41950;55.840;37.442;2022-09-21T15:41:40;99547.38;;;13.73;67.16
56074;BME280;41950;55.840;37.442;2022-09-21T15:44:18;99543.19;;;13.68;67.42
56074;BME280;41950;55.840;37.442;2022-09-21T15:46:48;99536.38;;;13.64;67.84
56074;BME280;41950;55.840;37.442;2022-09-21T15:49:18;99534.72;;;13.61;67.81
56074;BME280;41950;55.840;37.442;2022-09-21T15:54:31;99562.31;;;13.68;68.18
56074;BME280;41950;55.840;37.442;2022-09-21T15:57:00;99556.22;;;13.68;68.01
56074;BME280;41950;55.840;37.442;2022-09-21T15:59:27;99565.81;;;13.67;68.19
56074;BME280;41950;55.840;37.442;2022-09-21T16:01:57;99556.28;;;13.66;68.58
56074;BME280;41950;55.840;37.442;2022-09-21T16:04:26;99562.41;;;13.65;68.81
56074;BME280;41950;55.840;37.442;2022-09-21T16:07:04;99562.56;;;13.60;68.62
56074;BME280;41950;55.840;37.442;2022-09-21T16:09:37;99565.25;;;13.57;68.86
56074;BME280;41950;55.840;37.442;2022-09-21T16:15:43;99576.63;;;13.55;69.12